createdAt,value
2023-05-14T00:00:05.576Z,36.63
2023-05-14T00:01:05.611Z,36.63
2023-05-14T00:02:05.642Z,36.64
2023-05-14T00:03:05.667Z,36.63
2023-05-14T00:04:05.764Z,36.65
2023-05-14T00:05:05.714Z,36.64
2023-05-14T00:06:05.698Z,36.62
2023-05-14T00:07:05.726Z,36.65
2023-05-14T00:08:05.759Z,36.63
2023-05-14T00:09:05.767Z,36.63
2023-05-14T00:10:05.791Z,36.63
2023-05-14T00:11:05.842Z,36.63
2023-05-14T00:12:05.846Z,36.64
2023-05-14T00:13:05.866Z,36.66
2023-05-14T00:14:05.880Z,36.66
2023-05-14T00:15:05.917Z,36.66
2023-05-14T00:16:05.964Z,36.66
2023-05-14T00:17:05.928Z,36.65
2023-05-14T00:18:05.986Z,36.66
2023-05-14T00:19:06.108Z,36.66
2023-05-14T00:20:06.000Z,36.66
2023-05-14T00:21:06.019Z,36.67
2023-05-14T00:22:05.980Z,36.66
2023-05-14T00:23:06.014Z,36.66
2023-05-14T00:24:06.025Z,36.63
2023-05-14T00:25:06.017Z,36.65
2023-05-14T00:26:06.026Z,36.65
2023-05-14T00:27:06.048Z,36.67
2023-05-14T00:28:06.061Z,36.66
2023-05-14T00:29:06.102Z,36.64
2023-05-14T00:30:06.134Z,36.64
2023-05-14T00:31:06.106Z,36.64
2023-05-14T00:32:06.090Z,36.65
2023-05-14T00:33:06.166Z,36.64
2023-05-14T00:34:06.144Z,36.65
2023-05-14T00:35:06.164Z,36.65
2023-05-14T00:36:06.173Z,36.66
2023-05-14T00:37:06.171Z,36.65
2023-05-14T00:38:06.260Z,36.66
2023-05-14T00:39:06.193Z,36.63
2023-05-14T00:40:06.254Z,36.65
2023-05-14T00:41:06.232Z,36.63
2023-05-14T00:42:06.220Z,36.62
2023-05-14T00:43:06.230Z,36.62
2023-05-14T00:44:06.258Z,36.62
2023-05-14T00:45:06.235Z,36.63
2023-05-14T00:46:06.246Z,36.66
2023-05-14T00:47:06.340Z,36.64
2023-05-14T00:48:06.338Z,36.66
2023-05-14T00:49:06.339Z,36.67
2023-05-14T00:50:06.342Z,36.62
2023-05-14T00:51:06.429Z,36.68
2023-05-14T00:52:06.430Z,36.67
2023-05-14T00:53:06.475Z,36.66
2023-05-14T00:54:06.537Z,36.66
2023-05-14T00:55:06.577Z,36.65
2023-05-14T00:56:06.580Z,36.65
2023-05-14T00:57:06.629Z,36.69
2023-05-14T00:58:06.618Z,36.67
2023-05-14T00:59:06.659Z,36.65
2023-05-14T01:00:06.672Z,36.64
2023-05-14T01:01:06.820Z,36.64
2023-05-14T01:02:06.763Z,36.65
2023-05-14T01:03:06.877Z,36.64
2023-05-14T01:04:07.018Z,36.64
2023-05-14T01:05:06.886Z,36.63
2023-05-14T01:06:06.942Z,36.63
2023-05-14T01:07:06.940Z,36.64
2023-05-14T01:08:06.991Z,36.65
2023-05-14T01:09:07.048Z,36.65
2023-05-14T01:10:07.067Z,36.65
2023-05-14T01:11:07.086Z,36.64
2023-05-14T01:12:07.103Z,36.65
2023-05-14T01:13:07.062Z,36.64
2023-05-14T01:14:07.058Z,36.64
2023-05-14T01:15:07.080Z,36.65
2023-05-14T01:16:07.109Z,36.64
2023-05-14T01:17:07.030Z,36.65
2023-05-14T01:18:07.109Z,36.63
2023-05-14T01:19:07.083Z,36.64
2023-05-14T01:20:07.080Z,36.63
2023-05-14T01:21:07.067Z,36.65
2023-05-14T01:22:07.053Z,36.66
2023-05-14T01:23:07.088Z,36.65
2023-05-14T01:24:07.046Z,36.64
2023-05-14T01:25:07.079Z,36.63
2023-05-14T01:26:07.061Z,36.66
2023-05-14T01:27:07.086Z,36.65
2023-05-14T01:28:07.089Z,36.61
2023-05-14T01:29:07.131Z,36.64
2023-05-14T01:30:07.085Z,36.64
2023-05-14T01:31:07.101Z,36.62
2023-05-14T01:32:07.182Z,36.61
2023-05-14T01:33:07.215Z,36.64
2023-05-14T01:34:07.140Z,36.62
2023-05-14T01:35:07.149Z,36.63
2023-05-14T01:36:07.134Z,36.63
2023-05-14T01:37:07.116Z,36.62
2023-05-14T01:38:07.151Z,36.61
2023-05-14T01:39:07.122Z,36.62
2023-05-14T01:40:07.141Z,36.61
2023-05-14T01:41:07.159Z,36.61
2023-05-14T01:42:07.218Z,36.63
2023-05-14T01:43:07.224Z,36.62
2023-05-14T01:44:07.213Z,36.63
2023-05-14T01:45:07.195Z,36.63
2023-05-14T01:46:07.338Z,36.62
2023-05-14T01:47:07.249Z,36.64
2023-05-14T01:48:07.268Z,36.62
2023-05-14T01:49:07.285Z,36.62
2023-05-14T01:50:07.279Z,36.61
2023-05-14T01:51:07.286Z,36.62
2023-05-14T01:52:07.296Z,36.62
2023-05-14T01:53:07.327Z,36.62
2023-05-14T01:54:07.330Z,36.61
2023-05-14T01:55:07.326Z,36.62
2023-05-14T01:56:07.303Z,36.65
2023-05-14T01:57:07.325Z,36.61
2023-05-14T01:58:07.367Z,36.62
2023-05-14T01:59:07.361Z,36.60
2023-05-14T02:00:07.375Z,36.61
2023-05-14T02:01:07.404Z,36.63
2023-05-14T02:02:07.404Z,36.63
2023-05-14T02:03:07.445Z,36.62
2023-05-14T02:04:07.493Z,36.63
2023-05-14T02:05:07.432Z,36.64
2023-05-14T02:06:07.441Z,36.63
2023-05-14T02:07:07.437Z,36.63
2023-05-14T02:08:07.440Z,36.64
2023-05-14T02:09:07.846Z,36.64
2023-05-14T02:10:07.423Z,36.63
2023-05-14T02:11:07.421Z,36.62
2023-05-14T02:12:07.454Z,36.65
2023-05-14T02:13:07.475Z,36.61
2023-05-14T02:14:07.429Z,36.63
2023-05-14T02:15:07.433Z,36.62
2023-05-14T02:16:07.464Z,36.63
2023-05-14T02:17:07.473Z,36.64
2023-05-14T02:18:07.490Z,36.64
2023-05-14T02:19:07.507Z,36.65
2023-05-14T02:20:07.458Z,36.64
2023-05-14T02:21:07.488Z,36.63
2023-05-14T02:22:07.448Z,36.64
2023-05-14T02:23:07.440Z,36.61
2023-05-14T02:24:07.447Z,36.62
2023-05-14T02:25:07.473Z,36.60
2023-05-14T02:26:07.457Z,36.61
2023-05-14T02:27:07.473Z,36.62
2023-05-14T02:28:07.482Z,36.61
2023-05-14T02:29:07.483Z,36.61
2023-05-14T02:30:07.521Z,36.62
2023-05-14T02:31:07.559Z,36.61
2023-05-14T02:32:07.503Z,36.65
2023-05-14T02:33:07.550Z,36.64
2023-05-14T02:34:07.497Z,36.60
2023-05-14T02:35:07.506Z,36.59
2023-05-14T02:36:07.512Z,36.60
2023-05-14T02:37:07.513Z,36.61
2023-05-14T02:38:07.529Z,36.61
2023-05-14T02:39:07.511Z,36.60
2023-05-14T02:40:07.500Z,36.60
2023-05-14T02:41:07.506Z,36.63
2023-05-14T02:42:07.483Z,36.60
2023-05-14T02:43:07.469Z,36.61
2023-05-14T02:44:07.505Z,36.64
2023-05-14T02:45:07.493Z,36.62
2023-05-14T02:46:07.504Z,36.61
2023-05-14T02:47:07.592Z,36.63
2023-05-14T02:48:07.564Z,36.60
2023-05-14T02:49:07.532Z,36.61
2023-05-14T02:50:07.482Z,36.62
2023-05-14T02:51:07.484Z,36.61
2023-05-14T02:52:07.494Z,36.59
2023-05-14T02:53:07.477Z,36.62
2023-05-14T02:54:07.566Z,36.62
2023-05-14T02:55:07.457Z,36.61
2023-05-14T02:56:07.483Z,36.61
2023-05-14T02:57:07.479Z,36.59
2023-05-14T02:58:07.451Z,36.59
2023-05-14T02:59:07.453Z,36.59
2023-05-14T03:00:07.482Z,36.59
2023-05-14T03:01:07.487Z,36.63
2023-05-14T03:02:07.591Z,36.62
2023-05-14T03:03:07.479Z,36.58
2023-05-14T03:04:07.483Z,36.59
2023-05-14T03:05:07.477Z,36.60
2023-05-14T03:06:07.489Z,36.58
2023-05-14T03:07:07.441Z,36.58
2023-05-14T03:08:07.439Z,36.60
2023-05-14T03:09:07.433Z,36.58
2023-05-14T03:10:07.433Z,36.58
2023-05-14T03:11:07.416Z,36.59
2023-05-14T03:12:07.416Z,36.59
2023-05-14T03:13:07.416Z,36.57
2023-05-14T03:14:07.399Z,36.57
2023-05-14T03:15:07.432Z,36.59
2023-05-14T03:16:07.404Z,36.60
2023-05-14T03:17:07.465Z,36.59
2023-05-14T03:18:07.421Z,36.58
2023-05-14T03:19:07.549Z,36.62
2023-05-14T03:20:07.409Z,36.61
2023-05-14T03:21:07.368Z,36.60
2023-05-14T03:22:07.356Z,36.61
2023-05-14T03:23:07.360Z,36.59
2023-05-14T03:24:07.421Z,36.57
2023-05-14T03:25:07.357Z,36.59
2023-05-14T03:26:07.373Z,36.59
2023-05-14T03:27:07.398Z,36.58
2023-05-14T03:28:07.346Z,36.58
2023-05-14T03:29:07.374Z,36.56
2023-05-14T03:30:07.361Z,36.57
2023-05-14T03:31:07.419Z,36.57
2023-05-14T03:32:07.340Z,36.58
2023-05-14T03:33:07.422Z,36.55
2023-05-14T03:34:07.350Z,36.58
2023-05-14T03:35:07.357Z,36.56
2023-05-14T03:36:07.376Z,36.56
2023-05-14T03:37:07.372Z,36.58
2023-05-14T03:38:07.368Z,36.57
2023-05-14T03:39:07.358Z,36.57
2023-05-14T03:40:07.352Z,36.55
2023-05-14T03:41:07.349Z,36.55
2023-05-14T03:42:07.332Z,36.57
2023-05-14T03:43:07.356Z,36.57
2023-05-14T03:44:07.356Z,36.60
2023-05-14T03:45:07.358Z,36.57
2023-05-14T03:46:07.349Z,36.55
2023-05-14T03:47:07.328Z,36.57
2023-05-14T03:48:07.397Z,36.56
2023-05-14T03:49:07.413Z,36.57
2023-05-14T03:50:07.343Z,36.55
2023-05-14T03:51:07.351Z,36.53
2023-05-14T03:52:07.891Z,36.53
2023-05-14T03:53:07.320Z,36.52
2023-05-14T03:54:07.310Z,36.53
2023-05-14T03:55:07.323Z,36.53
2023-05-14T03:56:07.289Z,36.52
2023-05-14T03:57:07.331Z,36.53
2023-05-14T03:58:07.309Z,36.56
2023-05-14T03:59:07.312Z,36.55
2023-05-14T04:00:07.322Z,36.56
2023-05-14T04:01:07.304Z,36.54
2023-05-14T04:02:07.333Z,36.56
2023-05-14T04:03:07.398Z,36.54
2023-05-14T04:04:07.414Z,36.54
2023-05-14T04:05:07.309Z,36.52
2023-05-14T04:06:07.281Z,36.55
2023-05-14T04:07:07.297Z,36.54
2023-05-14T04:08:07.290Z,36.53
2023-05-14T04:09:07.292Z,36.55
2023-05-14T04:10:07.287Z,36.53
2023-05-14T04:11:07.293Z,36.54
2023-05-14T04:12:07.258Z,36.53
2023-05-14T04:13:07.301Z,36.54
2023-05-14T04:14:07.266Z,36.53
2023-05-14T04:15:07.302Z,36.52
2023-05-14T04:16:07.430Z,36.52
2023-05-14T04:17:07.276Z,36.50
2023-05-14T04:18:07.294Z,36.52
2023-05-14T04:19:07.351Z,36.53
2023-05-14T04:20:07.250Z,36.53
2023-05-14T04:21:07.258Z,36.52
2023-05-14T04:22:07.250Z,36.54
2023-05-14T04:23:07.270Z,36.53
2023-05-14T04:24:07.270Z,36.49
2023-05-14T04:25:07.269Z,36.53
2023-05-14T04:26:07.267Z,36.50
2023-05-14T04:27:07.224Z,36.52
2023-05-14T04:28:07.265Z,36.52
2023-05-14T04:29:07.242Z,36.52
2023-05-14T04:30:07.234Z,36.50
2023-05-14T04:31:07.221Z,36.49
2023-05-14T04:32:07.364Z,36.49
2023-05-14T04:33:07.243Z,36.50
2023-05-14T04:34:07.243Z,36.53
2023-05-14T04:35:07.191Z,36.51
2023-05-14T04:36:07.220Z,36.50
2023-05-14T04:37:07.215Z,36.49
2023-05-14T04:38:07.226Z,36.50
2023-05-14T04:39:07.213Z,36.52
2023-05-14T04:40:07.236Z,36.49
2023-05-14T04:41:07.242Z,36.46
2023-05-14T04:42:07.216Z,36.50
2023-05-14T04:43:07.210Z,36.48
2023-05-14T04:44:07.240Z,36.48
2023-05-14T04:45:07.220Z,36.48
2023-05-14T04:46:07.251Z,36.46
2023-05-14T04:47:07.205Z,36.49
2023-05-14T04:48:07.262Z,36.46
2023-05-14T04:49:07.290Z,36.44
2023-05-14T04:50:07.213Z,36.47
2023-05-14T04:51:07.351Z,36.51
2023-05-14T04:52:07.195Z,36.50
2023-05-14T04:53:07.206Z,36.49
2023-05-14T04:54:07.276Z,36.47
2023-05-14T04:55:07.219Z,36.46
2023-05-14T04:56:07.223Z,36.48
2023-05-14T04:57:07.218Z,36.47
2023-05-14T04:58:07.246Z,36.49
2023-05-14T04:59:07.207Z,36.48
2023-05-14T05:00:07.211Z,36.46
2023-05-14T05:01:07.300Z,36.46
2023-05-14T05:02:07.212Z,36.48
2023-05-14T05:03:07.315Z,36.46
2023-05-14T05:04:07.268Z,36.46
2023-05-14T05:05:07.194Z,36.45
2023-05-14T05:06:07.239Z,36.45
2023-05-14T05:07:07.236Z,36.45
2023-05-14T05:08:07.192Z,36.48
2023-05-14T05:09:07.199Z,36.46
2023-05-14T05:10:07.211Z,36.48
2023-05-14T05:11:07.234Z,36.48
2023-05-14T05:12:07.219Z,36.43
2023-05-14T05:13:07.261Z,36.47
2023-05-14T05:14:07.285Z,36.46
2023-05-14T05:15:07.256Z,36.44
2023-05-14T05:16:07.297Z,36.43
2023-05-14T05:17:07.232Z,36.44
2023-05-14T05:18:07.245Z,36.45
2023-05-14T05:19:07.361Z,36.46
2023-05-14T05:20:07.234Z,36.44
2023-05-14T05:21:07.281Z,36.43
2023-05-14T05:22:07.250Z,36.42
2023-05-14T05:23:07.291Z,36.43
2023-05-14T05:24:07.261Z,36.43
2023-05-14T05:25:07.274Z,36.40
2023-05-14T05:26:07.236Z,36.44
2023-05-14T05:27:07.256Z,36.43
2023-05-14T05:28:07.260Z,36.44
2023-05-14T05:29:07.241Z,36.40
2023-05-14T05:30:07.241Z,36.43
2023-05-14T05:31:07.435Z,36.41
2023-05-14T05:32:07.250Z,36.43
2023-05-14T05:33:07.323Z,36.45
2023-05-14T05:34:07.229Z,36.45
2023-05-14T05:35:07.251Z,36.42
2023-05-14T05:36:07.212Z,36.45
2023-05-14T05:37:07.246Z,36.43
2023-05-14T05:38:07.235Z,36.43
2023-05-14T05:39:07.189Z,36.42
2023-05-14T05:40:07.271Z,36.44
2023-05-14T05:41:07.222Z,36.44
2023-05-14T05:42:07.212Z,36.42
2023-05-14T05:43:07.217Z,36.43
2023-05-14T05:44:07.181Z,36.43
2023-05-14T05:45:07.230Z,36.43
2023-05-14T05:46:07.274Z,36.42
2023-05-14T05:47:07.227Z,36.43
2023-05-14T05:48:07.282Z,36.41
2023-05-14T05:49:07.245Z,36.37
2023-05-14T05:50:07.209Z,36.42
2023-05-14T05:51:07.195Z,36.39
2023-05-14T05:52:07.202Z,36.40
2023-05-14T05:53:07.181Z,36.39
2023-05-14T05:54:07.199Z,36.39
2023-05-14T05:55:07.216Z,36.43
2023-05-14T05:56:07.243Z,36.39
2023-05-14T05:57:07.196Z,36.38
2023-05-14T05:58:07.193Z,36.37
2023-05-14T05:59:07.223Z,36.37
2023-05-14T06:00:07.367Z,36.40
2023-05-14T06:01:07.201Z,36.39
2023-05-14T06:02:07.300Z,36.37
2023-05-14T06:03:07.346Z,36.41
2023-05-14T06:04:07.212Z,36.38
2023-05-14T06:05:07.270Z,36.36
2023-05-14T06:06:07.245Z,36.36
2023-05-14T06:07:07.212Z,36.36
2023-05-14T06:08:07.224Z,36.37
2023-05-14T06:09:07.230Z,36.36
2023-05-14T06:10:07.243Z,36.37
2023-05-14T06:11:07.231Z,36.35
2023-05-14T06:12:07.244Z,36.35
2023-05-14T06:13:07.235Z,36.35
2023-05-14T06:14:07.246Z,36.35
2023-05-14T06:15:07.252Z,36.34
2023-05-14T06:16:07.327Z,36.33
2023-05-14T06:17:07.263Z,36.32
2023-05-14T06:18:07.264Z,36.33
2023-05-14T06:19:07.307Z,36.33
2023-05-14T06:20:07.225Z,36.32
2023-05-14T06:21:07.233Z,36.31
2023-05-14T06:22:07.220Z,36.33
2023-05-14T06:23:07.245Z,36.32
2023-05-14T06:24:07.243Z,36.33
2023-05-14T06:25:07.260Z,36.33
2023-05-14T06:26:07.304Z,36.31
2023-05-14T06:27:07.239Z,36.34
2023-05-14T06:28:07.235Z,36.28
2023-05-14T06:29:07.240Z,36.29
2023-05-14T06:30:07.248Z,36.30
2023-05-14T06:31:07.215Z,36.29
2023-05-14T06:32:07.279Z,36.29
2023-05-14T06:33:07.297Z,36.27
2023-05-14T06:34:07.223Z,36.27
2023-05-14T06:35:07.212Z,36.24
2023-05-14T06:36:07.238Z,36.24
2023-05-14T06:37:07.213Z,36.25
2023-05-14T06:38:07.232Z,36.23
2023-05-14T06:39:07.200Z,36.25
2023-05-14T06:40:07.208Z,36.22
2023-05-14T06:41:07.199Z,36.22
2023-05-14T06:42:07.202Z,36.20
2023-05-14T06:43:07.176Z,36.20
2023-05-14T06:44:07.180Z,36.21
2023-05-14T06:45:07.205Z,36.20
2023-05-14T06:46:07.177Z,36.22
2023-05-14T06:47:07.199Z,36.18
2023-05-14T06:48:07.265Z,36.17
2023-05-14T06:49:07.209Z,36.18
2023-05-14T06:50:08.385Z,36.18
2023-05-14T06:51:07.168Z,36.16
2023-05-14T06:52:07.176Z,36.16
2023-05-14T06:53:07.153Z,36.16
2023-05-14T06:54:07.220Z,36.17
2023-05-14T06:55:07.184Z,36.14
2023-05-14T06:56:07.172Z,36.14
2023-05-14T06:57:07.159Z,36.14
2023-05-14T06:58:07.179Z,36.14
2023-05-14T06:59:07.197Z,36.12
2023-05-14T07:00:07.154Z,36.12
2023-05-14T07:01:07.177Z,36.13
2023-05-14T07:02:07.164Z,36.11
2023-05-14T07:03:07.229Z,36.11
2023-05-14T07:04:07.212Z,36.11
2023-05-14T07:05:07.131Z,36.11
2023-05-14T07:06:07.152Z,36.08
2023-05-14T07:07:07.130Z,36.10
2023-05-14T07:08:07.125Z,36.12
2023-05-14T07:09:07.163Z,36.10
2023-05-14T07:10:07.158Z,36.09
2023-05-14T07:11:07.170Z,36.08
2023-05-14T07:12:07.162Z,36.08
2023-05-14T07:13:07.139Z,36.09
2023-05-14T07:14:07.140Z,36.08
2023-05-14T07:15:07.128Z,36.09
2023-05-14T07:16:07.169Z,36.08
2023-05-14T07:17:07.244Z,36.07
2023-05-14T07:18:07.236Z,36.07
2023-05-14T07:19:07.241Z,36.08
2023-05-14T07:20:07.204Z,36.05
2023-05-14T07:21:07.230Z,36.03
2023-05-14T07:22:07.219Z,36.05
2023-05-14T07:23:07.216Z,36.05
2023-05-14T07:24:07.209Z,36.03
2023-05-14T07:25:07.204Z,36.01
2023-05-14T07:26:07.237Z,36.01
2023-05-14T07:27:07.266Z,36.02
2023-05-14T07:28:07.232Z,36.00
2023-05-14T07:29:07.257Z,36.01
2023-05-14T07:30:07.256Z,35.98
2023-05-14T07:31:07.310Z,36.00
2023-05-14T07:32:07.252Z,35.99
2023-05-14T07:33:07.314Z,36.00
2023-05-14T07:34:07.383Z,35.97
2023-05-14T07:35:07.271Z,35.99
2023-05-14T07:36:07.314Z,35.97
2023-05-14T07:37:07.320Z,35.95
2023-05-14T07:38:07.344Z,35.97
2023-05-14T07:39:07.352Z,35.93
2023-05-14T07:40:08.026Z,35.95
2023-05-14T07:41:07.431Z,35.95
2023-05-14T07:42:07.497Z,35.93
2023-05-14T07:43:07.520Z,35.94
2023-05-14T07:44:07.557Z,35.91
2023-05-14T07:45:07.555Z,35.92
2023-05-14T07:46:07.583Z,35.90
2023-05-14T07:47:07.793Z,35.91
2023-05-14T07:48:07.863Z,35.88
2023-05-14T07:49:07.713Z,35.88
2023-05-14T07:50:07.755Z,35.90
2023-05-14T07:51:07.814Z,35.87
2023-05-14T07:52:07.822Z,35.88
2023-05-14T07:53:07.889Z,35.85
2023-05-14T07:54:07.894Z,35.84
2023-05-14T07:55:07.940Z,35.83
2023-05-14T07:56:07.982Z,35.84
2023-05-14T07:57:08.053Z,35.83
2023-05-14T07:58:08.125Z,35.82
2023-05-14T07:59:08.168Z,35.82
2023-05-14T08:00:08.178Z,35.79
2023-05-14T08:01:08.283Z,35.80
2023-05-14T08:02:08.317Z,35.76
2023-05-14T08:03:08.443Z,35.75
2023-05-14T08:04:08.550Z,35.76
2023-05-14T08:05:08.501Z,35.73
2023-05-14T08:06:08.596Z,35.71
2023-05-14T08:07:08.599Z,35.69
2023-05-14T08:08:08.688Z,35.67
2023-05-14T08:09:08.727Z,35.67
2023-05-14T08:10:08.798Z,35.66
2023-05-14T08:11:08.924Z,35.69
2023-05-14T08:12:08.921Z,35.66
2023-05-14T08:13:08.970Z,35.65
2023-05-14T08:14:09.043Z,35.63
2023-05-14T08:15:09.117Z,35.62
2023-05-14T08:16:09.176Z,35.61
2023-05-14T08:17:09.283Z,35.61
2023-05-14T08:18:09.328Z,35.60
2023-05-14T08:19:09.402Z,35.59
2023-05-14T08:20:09.411Z,35.54
2023-05-14T08:21:09.495Z,35.55
2023-05-14T08:22:09.518Z,35.54
2023-05-14T08:23:09.588Z,35.51
2023-05-14T08:24:09.671Z,35.48
2023-05-14T08:25:09.740Z,35.48
2023-05-14T08:26:09.764Z,35.45
2023-05-14T08:27:09.866Z,35.46
2023-05-14T08:28:09.931Z,35.46
2023-05-14T08:29:10.760Z,35.43
2023-05-14T08:30:10.028Z,35.40
2023-05-14T08:31:10.118Z,35.38
2023-05-14T08:32:22.057Z,35.39
2023-05-14T08:33:11.180Z,35.33
2023-05-14T08:34:10.131Z,35.32
2023-05-14T08:35:10.099Z,35.28
2023-05-14T08:36:10.123Z,35.27
2023-05-14T08:37:10.114Z,35.20
2023-05-14T08:38:10.091Z,35.17
2023-05-14T08:39:10.104Z,35.11
2023-05-14T08:40:10.086Z,35.10
2023-05-14T08:41:10.100Z,35.07
2023-05-14T08:42:10.058Z,35.05
2023-05-14T08:43:10.055Z,35.02
2023-05-14T08:44:10.134Z,35.04
2023-05-14T08:45:10.213Z,35.02
2023-05-14T08:46:10.209Z,34.97
2023-05-14T08:47:10.237Z,35.00
2023-05-14T08:48:10.294Z,34.95
2023-05-14T08:49:10.376Z,34.91
2023-05-14T08:50:10.325Z,34.88
2023-05-14T08:51:10.362Z,34.89
2023-05-14T08:52:10.363Z,34.84
2023-05-14T08:53:10.411Z,34.83
2023-05-14T08:54:10.427Z,34.81
2023-05-14T08:55:10.449Z,34.75
2023-05-14T08:56:10.483Z,34.81
2023-05-14T08:57:10.475Z,34.76
2023-05-14T08:58:10.513Z,34.81
2023-05-14T08:59:10.512Z,34.78
2023-05-14T09:00:10.516Z,34.80
2023-05-14T09:01:10.532Z,34.82
2023-05-14T09:02:10.663Z,34.83
2023-05-14T09:03:10.619Z,34.85
2023-05-14T09:04:10.733Z,34.85
2023-05-14T09:05:10.633Z,34.77
2023-05-14T09:06:10.636Z,34.74
2023-05-14T09:07:10.644Z,34.72
2023-05-14T09:08:10.659Z,34.72
2023-05-14T09:09:10.663Z,34.66
2023-05-14T09:10:10.710Z,34.68
2023-05-14T09:11:10.682Z,34.67
2023-05-14T09:12:10.677Z,34.64
2023-05-14T09:13:10.714Z,34.64
2023-05-14T09:14:10.693Z,34.62
2023-05-14T09:15:10.698Z,34.59
2023-05-14T09:16:10.682Z,34.64
2023-05-14T09:17:10.701Z,34.67
2023-05-14T09:18:10.718Z,34.72
2023-05-14T09:19:10.809Z,34.75
2023-05-14T09:20:10.698Z,34.75
2023-05-14T09:21:10.655Z,34.76
2023-05-14T09:22:10.695Z,34.76
2023-05-14T09:23:10.689Z,34.78
2023-05-14T09:24:10.702Z,34.77
2023-05-14T09:25:10.713Z,34.80
2023-05-14T09:26:10.703Z,34.76
2023-05-14T09:27:10.712Z,34.78
2023-05-14T09:28:10.735Z,34.79
2023-05-14T09:29:10.741Z,34.79
2023-05-14T09:30:10.746Z,34.78
2023-05-14T09:31:10.763Z,34.79
2023-05-14T09:32:10.711Z,34.78
2023-05-14T09:33:10.786Z,34.79
2023-05-14T09:34:10.721Z,34.78
2023-05-14T09:35:10.738Z,34.78
2023-05-14T09:36:10.712Z,34.80
2023-05-14T09:37:10.719Z,34.80
2023-05-14T09:38:10.777Z,34.80
2023-05-14T09:39:10.769Z,34.82
2023-05-14T09:40:10.774Z,34.84
2023-05-14T09:41:10.769Z,34.84
2023-05-14T09:42:10.794Z,34.88
2023-05-14T09:43:10.779Z,34.90
2023-05-14T09:44:10.778Z,34.86
2023-05-14T09:45:10.812Z,34.89
2023-05-14T09:46:10.756Z,34.89
2023-05-14T09:47:10.800Z,34.89
2023-05-14T09:48:11.019Z,34.91
2023-05-14T09:49:10.825Z,34.90
2023-05-14T09:50:10.812Z,34.91
2023-05-14T09:51:10.814Z,34.91
2023-05-14T09:52:10.789Z,34.92
2023-05-14T09:53:10.818Z,34.94
2023-05-14T09:54:10.844Z,34.90
2023-05-14T09:55:10.819Z,34.93
2023-05-14T09:56:10.855Z,34.94
2023-05-14T09:57:10.858Z,34.94
2023-05-14T09:58:10.855Z,34.97
2023-05-14T09:59:10.884Z,34.98
2023-05-14T10:00:10.877Z,34.94
2023-05-14T10:01:10.957Z,34.96
2023-05-14T10:02:10.927Z,34.94
2023-05-14T10:03:10.978Z,34.96
2023-05-14T10:04:10.954Z,34.97
2023-05-14T10:05:10.962Z,34.99
2023-05-14T10:06:10.966Z,34.98
2023-05-14T10:07:10.965Z,34.98
2023-05-14T10:08:10.972Z,34.99
2023-05-14T10:09:11.009Z,34.98
2023-05-14T10:10:11.020Z,34.98
2023-05-14T10:11:11.032Z,34.97
2023-05-14T10:12:11.064Z,34.98
2023-05-14T10:13:11.071Z,34.96
2023-05-14T10:14:11.073Z,35.00
2023-05-14T10:15:11.133Z,34.99
2023-05-14T10:16:11.118Z,35.00
2023-05-14T10:17:11.224Z,35.03
2023-05-14T10:18:11.199Z,35.00
2023-05-14T10:19:11.234Z,35.02
2023-05-14T10:20:11.197Z,35.04
2023-05-14T10:21:11.223Z,35.05
2023-05-14T10:22:11.221Z,35.04
2023-05-14T10:23:11.204Z,35.06
2023-05-14T10:24:11.257Z,35.05
2023-05-14T10:25:11.269Z,35.06
2023-05-14T10:26:11.266Z,35.05
2023-05-14T10:27:11.312Z,35.06
2023-05-14T10:28:11.331Z,35.04
2023-05-14T10:29:11.342Z,35.05
2023-05-14T10:30:11.366Z,35.05
2023-05-14T10:31:11.398Z,35.04
2023-05-14T10:32:11.374Z,35.05
2023-05-14T10:33:11.553Z,35.05
2023-05-14T10:34:11.439Z,35.03
2023-05-14T10:35:11.439Z,35.04
2023-05-14T10:36:11.471Z,35.07
2023-05-14T10:37:11.498Z,35.08
2023-05-14T10:38:11.489Z,35.08
2023-05-14T10:39:11.530Z,35.08
2023-05-14T10:40:11.565Z,35.09
2023-05-14T10:41:11.575Z,35.10
2023-05-14T10:42:11.620Z,35.11
2023-05-14T10:43:11.631Z,35.11
2023-05-14T10:44:11.653Z,35.09
2023-05-14T10:45:11.665Z,35.15
2023-05-14T10:46:11.711Z,35.16
2023-05-14T10:47:11.701Z,35.19
2023-05-14T10:48:11.734Z,35.17
2023-05-14T10:49:11.740Z,35.15
2023-05-14T10:50:11.796Z,35.14
2023-05-14T10:51:11.863Z,35.14
2023-05-14T10:52:11.789Z,35.14
2023-05-14T10:53:11.843Z,35.16
2023-05-14T10:54:11.850Z,35.16
2023-05-14T10:55:11.913Z,35.18
2023-05-14T10:56:11.904Z,35.16
2023-05-14T10:57:11.924Z,35.17
2023-05-14T10:58:11.943Z,35.18
2023-05-14T10:59:11.992Z,35.17
2023-05-14T11:00:11.998Z,35.20
2023-05-14T11:01:12.175Z,35.21
2023-05-14T11:02:12.125Z,35.21
2023-05-14T11:03:12.110Z,35.15
2023-05-14T11:04:12.245Z,35.16
2023-05-14T11:05:12.139Z,35.16
2023-05-14T11:06:12.162Z,35.19
2023-05-14T11:07:12.231Z,35.17
2023-05-14T11:08:12.236Z,35.20
2023-05-14T11:09:12.246Z,35.14
2023-05-14T11:10:12.301Z,35.18
2023-05-14T11:11:12.283Z,35.18
2023-05-14T11:12:12.300Z,35.16
2023-05-14T11:13:12.352Z,35.15
2023-05-14T11:14:12.346Z,35.14
2023-05-14T11:15:12.419Z,35.13
2023-05-14T11:16:22.963Z,35.14
2023-05-14T11:17:13.463Z,35.13
2023-05-14T11:18:12.417Z,35.14
2023-05-14T11:19:12.548Z,35.15
2023-05-14T11:20:12.436Z,35.14
2023-05-14T11:21:12.397Z,35.14
2023-05-14T11:22:12.358Z,35.14
2023-05-14T11:23:12.387Z,35.11
2023-05-14T11:24:12.370Z,35.09
2023-05-14T11:25:12.383Z,35.11
2023-05-14T11:26:12.347Z,35.09
2023-05-14T11:27:12.328Z,35.10
2023-05-14T11:28:12.348Z,35.10
2023-05-14T11:29:12.354Z,35.09
2023-05-14T11:30:12.330Z,35.09
2023-05-14T11:31:12.334Z,35.09
2023-05-14T11:32:12.398Z,35.10
2023-05-14T11:33:12.425Z,35.10
2023-05-14T11:34:12.395Z,35.10
2023-05-14T11:35:12.417Z,35.11
2023-05-14T11:36:12.424Z,35.14
2023-05-14T11:37:12.439Z,35.12
2023-05-14T11:38:12.475Z,35.13
2023-05-14T11:39:12.515Z,35.11
2023-05-14T11:40:12.541Z,35.12
2023-05-14T11:41:12.582Z,35.09
2023-05-14T11:42:12.605Z,35.12
2023-05-14T11:43:12.622Z,35.10
2023-05-14T11:44:12.651Z,35.11
2023-05-14T11:45:12.772Z,35.09
2023-05-14T11:46:12.733Z,35.11
2023-05-14T11:47:12.746Z,35.12
2023-05-14T11:48:12.772Z,35.14
2023-05-14T11:49:12.752Z,35.15
2023-05-14T11:50:12.793Z,35.12
2023-05-14T11:51:12.852Z,35.14
2023-05-14T11:52:12.835Z,35.13
2023-05-14T11:53:12.877Z,35.16
2023-05-14T11:54:12.933Z,35.17
2023-05-14T11:55:12.962Z,35.17
2023-05-14T11:56:12.976Z,35.16
2023-05-14T11:57:12.997Z,35.10
2023-05-14T11:58:13.039Z,35.17
2023-05-14T11:59:13.075Z,35.12
2023-05-14T12:00:13.113Z,35.14
2023-05-14T12:01:13.134Z,35.16
2023-05-14T12:02:13.256Z,35.14
2023-05-14T12:03:13.234Z,35.18
2023-05-14T12:04:13.210Z,35.17
2023-05-14T12:05:13.302Z,35.17
2023-05-14T12:06:13.231Z,35.16
2023-05-14T12:07:13.280Z,35.18
2023-05-14T12:08:13.291Z,35.19
2023-05-14T12:09:13.329Z,35.17
2023-05-14T12:10:13.394Z,35.17
2023-05-14T12:11:13.401Z,35.17
2023-05-14T12:12:13.406Z,35.18
2023-05-14T12:13:13.469Z,35.20
2023-05-14T12:14:13.479Z,35.19
2023-05-14T12:15:13.582Z,35.20
2023-05-14T12:16:13.609Z,35.17
2023-05-14T12:17:13.592Z,35.17
2023-05-14T12:18:23.404Z,35.20
2023-05-14T12:19:14.663Z,35.25
2023-05-14T12:20:13.620Z,35.25
2023-05-14T12:21:13.650Z,35.22
2023-05-14T12:22:13.605Z,35.22
2023-05-14T12:23:13.591Z,35.24
2023-05-14T12:24:13.590Z,35.26
2023-05-14T12:25:13.734Z,35.22
2023-05-14T12:26:13.598Z,35.24
2023-05-14T12:27:13.558Z,35.25
2023-05-14T12:28:13.583Z,35.28
2023-05-14T12:29:13.567Z,35.28
2023-05-14T12:31:14.566Z,35.27
2023-05-14T12:32:13.551Z,35.29
2023-05-14T12:33:13.620Z,35.30
2023-05-14T12:34:13.538Z,35.28
2023-05-14T12:35:13.591Z,35.27
2023-05-14T12:36:21.084Z,35.36
2023-05-14T12:37:14.505Z,35.30
2023-05-14T12:38:13.619Z,35.34
2023-05-14T12:39:13.508Z,35.36
2023-05-14T12:40:13.543Z,35.39
2023-05-14T12:41:13.481Z,35.41
2023-05-14T12:42:13.510Z,35.40
2023-05-14T12:43:13.489Z,35.39
2023-05-14T12:44:13.478Z,35.39
2023-05-14T12:45:13.488Z,35.35
2023-05-14T12:46:13.449Z,35.36
2023-05-14T12:47:13.583Z,35.39
2023-05-14T12:48:13.472Z,35.40
2023-05-14T12:49:13.497Z,35.40
2023-05-14T12:50:13.533Z,35.37
2023-05-14T12:51:13.521Z,35.33
2023-05-14T12:53:13.573Z,35.38
2023-05-14T12:54:13.563Z,35.40